sensor_id;sensor_type;location;lat;lon;timestamp;P1;durP1;ratioP1;P2;durP2;ratioP2
22284;SDS011;11311;52.192;20.900;2023-07-31T00:01:46;3.10;;;1.70;;
22284;SDS011;11311;52.192;20.900;2023-07-31T00:06:43;2.05;;;1.83;;
22284;SDS011;11311;52.192;20.900;2023-07-31T00:09:11;3.40;;;1.90;;
22284;SDS011;11311;52.192;20.900;2023-07-31T00:11:41;2.22;;;2.00;;
22284;SDS011;11311;52.192;20.900;2023-07-31T00:14:10;2.72;;;2.47;;
22284;SDS011;11311;52.192;20.900;2023-07-31T00:16:39;2.10;;;1.90;;
22284;SDS011;11311;52.192;20.900;2023-07-31T00:19:09;5.22;;;1.90;;
22284;SDS011;11311;52.192;20.900;2023-07-31T00:21:38;2.10;;;1.90;;
22284;SDS011;11311;52.192;20.900;2023-07-31T00:24:08;2.35;;;2.15;;
22284;SDS011;11311;52.192;20.900;2023-07-31T00:26:37;2.30;;;2.00;;
22284;SDS011;11311;52.192;20.900;2023-07-31T00:29:06;4.55;;;2.35;;
22284;SDS011;11311;52.192;20.900;2023-07-31T00:31:36;2.47;;;2.03;;
22284;SDS011;11311;52.192;20.900;2023-07-31T00:34:05;2.10;;;2.00;;
22284;SDS011;11311;52.192;20.900;2023-07-31T00:36:36;2.85;;;2.08;;
22284;SDS011;11311;52.192;20.900;2023-07-31T00:39:05;2.22;;;2.03;;
22284;SDS011;11311;52.192;20.900;2023-07-31T00:41:35;8.80;;;2.27;;
22284;SDS011;11311;52.192;20.900;2023-07-31T00:44:03;3.40;;;2.42;;
22284;SDS011;11311;52.192;20.900;2023-07-31T00:46:33;6.82;;;2.05;;
22284;SDS011;11311;52.192;20.900;2023-07-31T00:49:02;2.67;;;2.30;;
22284;SDS011;11311;52.192;20.900;2023-07-31T00:51:31;5.00;;;2.20;;
22284;SDS011;11311;52.192;20.900;2023-07-31T00:54:01;2.88;;;2.25;;
22284;SDS011;11311;52.192;20.900;2023-07-31T00:56:30;5.28;;;2.35;;
22284;SDS011;11311;52.192;20.900;2023-07-31T00:59:00;2.00;;;1.88;;
22284;SDS011;11311;52.192;20.900;2023-07-31T01:01:28;2.25;;;2.05;;
22284;SDS011;11311;52.192;20.900;2023-07-31T01:03:57;8.18;;;2.30;;
22284;SDS011;11311;52.192;20.900;2023-07-31T01:06:28;3.33;;;2.60;;
22284;SDS011;11311;52.192;20.900;2023-07-31T01:09:02;3.50;;;2.10;;
22284;SDS011;11311;52.192;20.900;2023-07-31T01:11:32;4.78;;;2.50;;
22284;SDS011;11311;52.192;20.900;2023-07-31T01:14:01;2.47;;;2.25;;
22284;SDS011;11311;52.192;20.900;2023-07-31T01:16:30;4.65;;;2.78;;
22284;SDS011;11311;52.192;20.900;2023-07-31T01:18:59;8.73;;;2.60;;
22284;SDS011;11311;52.192;20.900;2023-07-31T01:21:37;4.50;;;2.80;;
22284;SDS011;11311;52.192;20.900;2023-07-31T01:24:18;2.47;;;2.03;;
22284;SDS011;11311;52.192;20.900;2023-07-31T01:26:51;6.63;;;2.45;;
22284;SDS011;11311;52.192;20.900;2023-07-31T01:29:23;2.95;;;2.65;;
22284;SDS011;11311;52.192;20.900;2023-07-31T01:31:54;2.47;;;2.28;;
22284;SDS011;11311;52.192;20.900;2023-07-31T01:34:24;4.93;;;2.80;;
22284;SDS011;11311;52.192;20.900;2023-07-31T01:36:53;3.38;;;2.50;;
22284;SDS011;11311;52.192;20.900;2023-07-31T01:39:23;2.80;;;2.60;;
22284;SDS011;11311;52.192;20.900;2023-07-31T01:41:53;2.78;;;2.45;;
22284;SDS011;11311;52.192;20.900;2023-07-31T01:44:21;2.65;;;2.45;;
22284;SDS011;11311;52.192;20.900;2023-07-31T01:46:50;3.15;;;2.50;;
22284;SDS011;11311;52.192;20.900;2023-07-31T01:49:19;4.70;;;3.10;;
22284;SDS011;11311;52.192;20.900;2023-07-31T01:51:48;3.10;;;2.35;;
22284;SDS011;11311;52.192;20.900;2023-07-31T01:54:17;2.85;;;2.65;;
22284;SDS011;11311;52.192;20.900;2023-07-31T01:56:45;6.65;;;3.25;;
22284;SDS011;11311;52.192;20.900;2023-07-31T01:59:16;7.07;;;3.03;;
22284;SDS011;11311;52.192;20.900;2023-07-31T02:01:44;4.28;;;3.00;;
22284;SDS011;11311;52.192;20.900;2023-07-31T02:04:13;3.15;;;2.75;;
22284;SDS011;11311;52.192;20.900;2023-07-31T02:06:43;3.03;;;2.72;;
22284;SDS011;11311;52.192;20.900;2023-07-31T02:09:11;7.57;;;3.45;;
22284;SDS011;11311;52.192;20.900;2023-07-31T02:11:40;4.10;;;3.05;;
22284;SDS011;11311;52.192;20.900;2023-07-31T02:14:09;9.63;;;3.78;;
22284;SDS011;11311;52.192;20.900;2023-07-31T02:16:39;3.40;;;3.08;;
22284;SDS011;11311;52.192;20.900;2023-07-31T02:19:10;4.40;;;3.05;;
22284;SDS011;11311;52.192;20.900;2023-07-31T02:21:39;3.47;;;3.17;;
22284;SDS011;11311;52.192;20.900;2023-07-31T02:24:07;3.83;;;3.22;;
22284;SDS011;11311;52.192;20.900;2023-07-31T02:26:36;3.75;;;2.50;;
22284;SDS011;11311;52.192;20.900;2023-07-31T02:29:05;5.60;;;3.08;;
22284;SDS011;11311;52.192;20.900;2023-07-31T02:31:34;4.40;;;3.08;;
22284;SDS011;11311;52.192;20.900;2023-07-31T02:34:04;3.45;;;3.08;;
22284;SDS011;11311;52.192;20.900;2023-07-31T02:36:33;5.57;;;3.78;;
22284;SDS011;11311;52.192;20.900;2023-07-31T02:39:01;5.05;;;3.67;;
22284;SDS011;11311;52.192;20.900;2023-07-31T02:41:30;3.83;;;3.17;;
22284;SDS011;11311;52.192;20.900;2023-07-31T02:43:59;3.97;;;3.63;;
22284;SDS011;11311;52.192;20.900;2023-07-31T02:46:27;7.88;;;3.60;;
22284;SDS011;11311;52.192;20.900;2023-07-31T02:48:56;9.68;;;4.32;;
22284;SDS011;11311;52.192;20.900;2023-07-31T02:51:27;5.00;;;4.00;;
22284;SDS011;11311;52.192;20.900;2023-07-31T02:53:56;8.48;;;3.88;;
22284;SDS011;11311;52.192;20.900;2023-07-31T02:56:24;4.32;;;3.35;;
22284;SDS011;11311;52.192;20.900;2023-07-31T02:58:52;4.78;;;3.50;;
22284;SDS011;11311;52.192;20.900;2023-07-31T03:01:21;3.80;;;3.35;;
22284;SDS011;11311;52.192;20.900;2023-07-31T03:03:50;6.03;;;3.42;;
22284;SDS011;11311;52.192;20.900;2023-07-31T03:06:19;5.97;;;3.85;;
22284;SDS011;11311;52.192;20.900;2023-07-31T03:08:49;4.72;;;3.55;;
22284;SDS011;11311;52.192;20.900;2023-07-31T03:13:46;7.18;;;3.38;;
22284;SDS011;11311;52.192;20.900;2023-07-31T03:16:14;5.28;;;3.55;;
22284;SDS011;11311;52.192;20.900;2023-07-31T03:18:43;7.90;;;3.53;;
22284;SDS011;11311;52.192;20.900;2023-07-31T03:21:12;4.05;;;3.42;;
22284;SDS011;11311;52.192;20.900;2023-07-31T03:23:40;3.55;;;3.08;;
22284;SDS011;11311;52.192;20.900;2023-07-31T03:26:12;6.72;;;3.65;;
22284;SDS011;11311;52.192;20.900;2023-07-31T03:28:40;8.07;;;3.60;;
22284;SDS011;11311;52.192;20.900;2023-07-31T03:31:09;4.25;;;3.67;;
22284;SDS011;11311;52.192;20.900;2023-07-31T03:33:38;6.90;;;3.72;;
22284;SDS011;11311;52.192;20.900;2023-07-31T03:36:07;3.97;;;3.38;;
22284;SDS011;11311;52.192;20.900;2023-07-31T03:38:36;5.07;;;3.40;;
22284;SDS011;11311;52.192;20.900;2023-07-31T03:41:04;4.22;;;3.83;;
22284;SDS011;11311;52.192;20.900;2023-07-31T03:43:36;7.78;;;3.83;;
22284;SDS011;11311;52.192;20.900;2023-07-31T03:46:06;7.70;;;3.60;;
22284;SDS011;11311;52.192;20.900;2023-07-31T03:48:36;5.50;;;3.45;;
22284;SDS011;11311;52.192;20.900;2023-07-31T03:51:05;5.40;;;3.65;;
22284;SDS011;11311;52.192;20.900;2023-07-31T03:53:34;8.93;;;4.22;;
22284;SDS011;11311;52.192;20.900;2023-07-31T03:56:02;4.03;;;3.15;;
22284;SDS011;11311;52.192;20.900;2023-07-31T03:58:30;3.70;;;3.33;;
22284;SDS011;11311;52.192;20.900;2023-07-31T04:01:01;4.07;;;3.60;;
22284;SDS011;11311;52.192;20.900;2023-07-31T04:03:29;7.05;;;3.53;;
22284;SDS011;11311;52.192;20.900;2023-07-31T04:05:58;3.55;;;3.25;;
22284;SDS011;11311;52.192;20.900;2023-07-31T04:08:27;4.22;;;3.58;;
22284;SDS011;11311;52.192;20.900;2023-07-31T04:10:55;5.72;;;3.67;;
22284;SDS011;11311;52.192;20.900;2023-07-31T04:13:23;11.32;;;3.88;;
22284;SDS011;11311;52.192;20.900;2023-07-31T04:15:54;3.95;;;3.65;;
22284;SDS011;11311;52.192;20.900;2023-07-31T04:18:25;5.50;;;3.72;;
22284;SDS011;11311;52.192;20.900;2023-07-31T04:20:54;5.05;;;3.22;;
22284;SDS011;11311;52.192;20.900;2023-07-31T04:23:22;7.15;;;3.55;;
22284;SDS011;11311;52.192;20.900;2023-07-31T04:25:51;4.40;;;3.60;;
22284;SDS011;11311;52.192;20.900;2023-07-31T04:28:19;3.33;;;2.97;;
22284;SDS011;11311;52.192;20.900;2023-07-31T04:30:48;5.50;;;3.67;;
22284;SDS011;11311;52.192;20.900;2023-07-31T04:33:17;6.88;;;3.63;;
22284;SDS011;11311;52.192;20.900;2023-07-31T04:35:49;7.05;;;3.80;;
22284;SDS011;11311;52.192;20.900;2023-07-31T04:38:20;4.88;;;3.80;;
22284;SDS011;11311;52.192;20.900;2023-07-31T04:40:48;6.45;;;3.70;;
22284;SDS011;11311;52.192;20.900;2023-07-31T04:43:17;4.28;;;3.10;;
22284;SDS011;11311;52.192;20.900;2023-07-31T04:45:45;6.40;;;3.72;;
22284;SDS011;11311;52.192;20.900;2023-07-31T04:48:15;3.20;;;2.63;;
22284;SDS011;11311;52.192;20.900;2023-07-31T04:50:44;5.75;;;3.13;;
22284;SDS011;11311;52.192;20.900;2023-07-31T04:53:14;3.90;;;2.95;;
22284;SDS011;11311;52.192;20.900;2023-07-31T04:55:42;4.27;;;3.20;;
22284;SDS011;11311;52.192;20.900;2023-07-31T04:58:11;5.03;;;3.50;;
22284;SDS011;11311;52.192;20.900;2023-07-31T05:00:39;3.95;;;3.00;;
22284;SDS011;11311;52.192;20.900;2023-07-31T05:03:08;5.05;;;3.15;;
22284;SDS011;11311;52.192;20.900;2023-07-31T05:05:38;6.20;;;3.83;;
22284;SDS011;11311;52.192;20.900;2023-07-31T05:08:07;6.38;;;3.60;;
22284;SDS011;11311;52.192;20.900;2023-07-31T05:10:36;4.32;;;3.28;;
22284;SDS011;11311;52.192;20.900;2023-07-31T05:13:05;5.07;;;3.38;;
22284;SDS011;11311;52.192;20.900;2023-07-31T05:15:33;4.70;;;3.50;;
22284;SDS011;11311;52.192;20.900;2023-07-31T05:18:02;6.90;;;3.22;;
22284;SDS011;11311;52.192;20.900;2023-07-31T05:20:31;3.75;;;2.80;;
22284;SDS011;11311;52.192;20.900;2023-07-31T05:23:00;3.55;;;2.75;;
22284;SDS011;11311;52.192;20.900;2023-07-31T05:25:28;7.68;;;3.20;;
22284;SDS011;11311;52.192;20.900;2023-07-31T05:27:58;3.83;;;3.03;;
22284;SDS011;11311;52.192;20.900;2023-07-31T05:30:27;4.38;;;3.13;;
22284;SDS011;11311;52.192;20.900;2023-07-31T05:32:57;4.78;;;3.53;;
22284;SDS011;11311;52.192;20.900;2023-07-31T05:35:26;3.25;;;2.80;;
22284;SDS011;11311;52.192;20.900;2023-07-31T05:37:55;4.28;;;2.80;;
22284;SDS011;11311;52.192;20.900;2023-07-31T05:40:24;7.30;;;3.10;;
22284;SDS011;11311;52.192;20.900;2023-07-31T05:42:52;3.65;;;3.35;;
22284;SDS011;11311;52.192;20.900;2023-07-31T05:45:22;5.47;;;3.30;;
22284;SDS011;11311;52.192;20.900;2023-07-31T05:47:51;4.30;;;3.42;;
22284;SDS011;11311;52.192;20.900;2023-07-31T05:50:20;3.95;;;2.78;;
22284;SDS011;11311;52.192;20.900;2023-07-31T05:52:48;4.10;;;2.90;;
22284;SDS011;11311;52.192;20.900;2023-07-31T05:55:17;3.80;;;2.83;;
22284;SDS011;11311;52.192;20.900;2023-07-31T05:57:46;3.25;;;2.95;;
22284;SDS011;11311;52.192;20.900;2023-07-31T06:00:14;6.32;;;3.70;;
22284;SDS011;11311;52.192;20.900;2023-07-31T06:02:45;4.15;;;3.13;;
22284;SDS011;11311;52.192;20.900;2023-07-31T06:05:13;5.60;;;3.60;;
22284;SDS011;11311;52.192;20.900;2023-07-31T06:07:41;5.13;;;3.38;;
22284;SDS011;11311;52.192;20.900;2023-07-31T06:10:10;6.53;;;3.85;;
22284;SDS011;11311;52.192;20.900;2023-07-31T06:12:39;6.45;;;3.72;;
22284;SDS011;11311;52.192;20.900;2023-07-31T06:15:08;4.13;;;3.20;;
22284;SDS011;11311;52.192;20.900;2023-07-31T06:17:38;5.03;;;3.03;;
22284;SDS011;11311;52.192;20.900;2023-07-31T06:20:08;4.57;;;3.60;;
22284;SDS011;11311;52.192;20.900;2023-07-31T06:25:05;3.90;;;3.03;;
22284;SDS011;11311;52.192;20.900;2023-07-31T06:27:34;6.53;;;3.95;;
22284;SDS011;11311;52.192;20.900;2023-07-31T06:30:04;8.13;;;4.15;;
22284;SDS011;11311;52.192;20.900;2023-07-31T06:32:33;8.60;;;3.17;;
22284;SDS011;11311;52.192;20.900;2023-07-31T06:35:03;3.78;;;2.83;;
22284;SDS011;11311;52.192;20.900;2023-07-31T06:37:33;8.63;;;3.55;;
22284;SDS011;11311;52.192;20.900;2023-07-31T06:40:04;7.00;;;4.15;;
22284;SDS011;11311;52.192;20.900;2023-07-31T06:42:36;8.10;;;4.30;;
22284;SDS011;11311;52.192;20.900;2023-07-31T06:45:05;11.25;;;3.70;;
22284;SDS011;11311;52.192;20.900;2023-07-31T06:47:34;5.18;;;3.60;;
22284;SDS011;11311;52.192;20.900;2023-07-31T06:50:03;10.88;;;3.72;;
22284;SDS011;11311;52.192;20.900;2023-07-31T06:52:33;7.47;;;3.33;;
22284;SDS011;11311;52.192;20.900;2023-07-31T06:55:02;5.55;;;3.78;;
22284;SDS011;11311;52.192;20.900;2023-07-31T06:57:35;7.88;;;4.13;;
22284;SDS011;11311;52.192;20.900;2023-07-31T07:00:04;5.85;;;3.65;;
22284;SDS011;11311;52.192;20.900;2023-07-31T07:02:33;5.55;;;2.97;;
22284;SDS011;11311;52.192;20.900;2023-07-31T07:05:01;6.40;;;3.42;;
22284;SDS011;11311;52.192;20.900;2023-07-31T07:07:30;6.18;;;3.38;;
22284;SDS011;11311;52.192;20.900;2023-07-31T07:10:00;7.07;;;3.13;;
22284;SDS011;11311;52.192;20.900;2023-07-31T07:12:30;7.43;;;3.28;;
22284;SDS011;11311;52.192;20.900;2023-07-31T07:15:00;5.18;;;2.97;;
22284;SDS011;11311;52.192;20.900;2023-07-31T07:17:29;7.15;;;3.50;;
22284;SDS011;11311;52.192;20.900;2023-07-31T07:19:58;5.70;;;3.30;;
22284;SDS011;11311;52.192;20.900;2023-07-31T07:22:27;9.63;;;3.45;;
22284;SDS011;11311;52.192;20.900;2023-07-31T07:24:56;6.37;;;3.20;;
22284;SDS011;11311;52.192;20.900;2023-07-31T07:27:26;11.43;;;4.15;;
22284;SDS011;11311;52.192;20.900;2023-07-31T07:29:55;6.40;;;3.53;;
22284;SDS011;11311;52.192;20.900;2023-07-31T07:32:23;4.68;;;3.13;;
22284;SDS011;11311;52.192;20.900;2023-07-31T07:34:52;11.43;;;3.53;;
22284;SDS011;11311;52.192;20.900;2023-07-31T07:37:20;9.57;;;4.25;;
22284;SDS011;11311;52.192;20.900;2023-07-31T07:39:49;3.97;;;3.03;;
22284;SDS011;11311;52.192;20.900;2023-07-31T07:42:17;4.25;;;3.00;;
22284;SDS011;11311;52.192;20.900;2023-07-31T07:44:48;11.45;;;3.78;;
22284;SDS011;11311;52.192;20.900;2023-07-31T07:47:17;7.15;;;2.80;;
22284;SDS011;11311;52.192;20.900;2023-07-31T07:49:45;5.65;;;3.20;;
22284;SDS011;11311;52.192;20.900;2023-07-31T07:52:19;8.45;;;4.03;;
22284;SDS011;11311;52.192;20.900;2023-07-31T07:54:48;3.42;;;3.00;;
22284;SDS011;11311;52.192;20.900;2023-07-31T07:57:17;7.47;;;2.72;;
22284;SDS011;11311;52.192;20.900;2023-07-31T07:59:47;6.15;;;3.00;;
22284;SDS011;11311;52.192;20.900;2023-07-31T08:02:16;6.85;;;3.38;;
22284;SDS011;11311;52.192;20.900;2023-07-31T08:04:44;14.68;;;3.00;;
22284;SDS011;11311;52.192;20.900;2023-07-31T08:07:13;4.43;;;2.78;;
22284;SDS011;11311;52.192;20.900;2023-07-31T08:09:41;6.13;;;2.83;;
22284;SDS011;11311;52.192;20.900;2023-07-31T08:12:10;3.58;;;2.20;;
22284;SDS011;11311;52.192;20.900;2023-07-31T08:14:38;6.82;;;2.97;;
22284;SDS011;11311;52.192;20.900;2023-07-31T08:17:09;11.45;;;3.03;;
22284;SDS011;11311;52.192;20.900;2023-07-31T08:19:37;8.40;;;2.90;;
22284;SDS011;11311;52.192;20.900;2023-07-31T08:22:06;5.25;;;3.13;;
22284;SDS011;11311;52.192;20.900;2023-07-31T08:24:35;5.88;;;2.80;;
22284;SDS011;11311;52.192;20.900;2023-07-31T08:27:03;6.38;;;2.58;;
22284;SDS011;11311;52.192;20.900;2023-07-31T08:29:34;5.82;;;3.13;;
22284;SDS011;11311;52.192;20.900;2023-07-31T08:32:02;4.32;;;2.63;;
22284;SDS011;11311;52.192;20.900;2023-07-31T08:34:32;4.70;;;2.75;;
22284;SDS011;11311;52.192;20.900;2023-07-31T08:37:01;5.30;;;3.00;;
22284;SDS011;11311;52.192;20.900;2023-07-31T08:39:29;6.65;;;2.65;;
22284;SDS011;11311;52.192;20.900;2023-07-31T08:41:58;6.00;;;2.70;;
22284;SDS011;11311;52.192;20.900;2023-07-31T08:44:29;6.33;;;3.00;;
22284;SDS011;11311;52.192;20.900;2023-07-31T08:49:26;10.60;;;3.03;;
22284;SDS011;11311;52.192;20.900;2023-07-31T08:51:56;4.30;;;2.42;;
22284;SDS011;11311;52.192;20.900;2023-07-31T08:54:25;5.53;;;3.17;;
22284;SDS011;11311;52.192;20.900;2023-07-31T08:56:58;4.00;;;2.60;;
22284;SDS011;11311;52.192;20.900;2023-07-31T08:59:27;7.70;;;3.00;;
22284;SDS011;11311;52.192;20.900;2023-07-31T09:01:57;6.07;;;2.85;;
22284;SDS011;11311;52.192;20.900;2023-07-31T09:04:26;5.57;;;3.97;;
22284;SDS011;11311;52.192;20.900;2023-07-31T09:06:57;6.50;;;2.42;;
22284;SDS011;11311;52.192;20.900;2023-07-31T09:09:28;5.93;;;2.58;;
22284;SDS011;11311;52.192;20.900;2023-07-31T09:11:57;4.65;;;2.10;;
22284;SDS011;11311;52.192;20.900;2023-07-31T09:14:26;6.35;;;2.33;;
22284;SDS011;11311;52.192;20.900;2023-07-31T09:16:56;5.20;;;2.03;;
22284;SDS011;11311;52.192;20.900;2023-07-31T09:19:25;4.18;;;2.30;;
22284;SDS011;11311;52.192;20.900;2023-07-31T09:21:56;4.22;;;2.15;;
22284;SDS011;11311;52.192;20.900;2023-07-31T09:24:25;5.03;;;2.50;;
22284;SDS011;11311;52.192;20.900;2023-07-31T09:26:54;4.37;;;2.20;;
22284;SDS011;11311;52.192;20.900;2023-07-31T09:29:24;4.27;;;2.23;;
22284;SDS011;11311;52.192;20.900;2023-07-31T09:31:53;2.28;;;1.90;;
22284;SDS011;11311;52.192;20.900;2023-07-31T09:34:28;4.10;;;1.83;;
22284;SDS011;11311;52.192;20.900;2023-07-31T09:37:01;3.78;;;2.22;;
22284;SDS011;11311;52.192;20.900;2023-07-31T09:39:30;10.13;;;3.13;;
22284;SDS011;11311;52.192;20.900;2023-07-31T09:41:59;9.38;;;2.08;;
22284;SDS011;11311;52.192;20.900;2023-07-31T09:44:40;2.65;;;1.80;;
22284;SDS011;11311;52.192;20.900;2023-07-31T09:47:20;4.03;;;2.03;;
22284;SDS011;11311;52.192;20.900;2023-07-31T09:49:49;8.82;;;1.98;;
22284;SDS011;11311;52.192;20.900;2023-07-31T09:54:49;4.32;;;1.95;;
22284;SDS011;11311;52.192;20.900;2023-07-31T09:57:17;4.07;;;1.92;;
22284;SDS011;11311;52.192;20.900;2023-07-31T09:59:49;6.28;;;1.60;;
22284;SDS011;11311;52.192;20.900;2023-07-31T10:02:21;5.93;;;1.65;;
22284;SDS011;11311;52.192;20.900;2023-07-31T10:04:50;4.57;;;2.15;;
22284;SDS011;11311;52.192;20.900;2023-07-31T10:07:18;3.85;;;1.80;;
22284;SDS011;11311;52.192;20.900;2023-07-31T10:09:50;5.05;;;1.90;;
22284;SDS011;11311;52.192;20.900;2023-07-31T10:12:20;5.05;;;2.10;;
22284;SDS011;11311;52.192;20.900;2023-07-31T10:14:50;3.47;;;2.00;;
22284;SDS011;11311;52.192;20.900;2023-07-31T10:17:19;10.60;;;1.70;;
22284;SDS011;11311;52.192;20.900;2023-07-31T10:19:48;2.60;;;1.42;;
22284;SDS011;11311;52.192;20.900;2023-07-31T10:22:20;2.63;;;1.73;;
22284;SDS011;11311;52.192;20.900;2023-07-31T10:24:50;6.63;;;1.83;;
22284;SDS011;11311;52.192;20.900;2023-07-31T10:27:20;6.28;;;2.08;;
22284;SDS011;11311;52.192;20.900;2023-07-31T10:29:49;5.22;;;1.40;;
22284;SDS011;11311;52.192;20.900;2023-07-31T10:32:18;4.55;;;1.88;;
22284;SDS011;11311;52.192;20.900;2023-07-31T10:34:49;4.80;;;1.20;;
22284;SDS011;11311;52.192;20.900;2023-07-31T10:37:25;3.28;;;1.77;;
22284;SDS011;11311;52.192;20.900;2023-07-31T10:39:59;3.47;;;1.85;;
22284;SDS011;11311;52.192;20.900;2023-07-31T10:42:31;2.15;;;1.45;;
22284;SDS011;11311;52.192;20.900;2023-07-31T10:45:02;3.33;;;1.25;;
22284;SDS011;11311;52.192;20.900;2023-07-31T10:47:31;2.72;;;1.75;;
22284;SDS011;11311;52.192;20.900;2023-07-31T10:50:12;4.07;;;1.35;;
22284;SDS011;11311;52.192;20.900;2023-07-31T10:52:42;2.70;;;1.67;;
22284;SDS011;11311;52.192;20.900;2023-07-31T10:55:23;4.65;;;1.10;;
22284;SDS011;11311;52.192;20.900;2023-07-31T10:57:52;2.85;;;1.30;;
22284;SDS011;11311;52.192;20.900;2023-07-31T11:00:22;3.00;;;1.63;;
22284;SDS011;11311;52.192;20.900;2023-07-31T11:05:19;2.83;;;1.35;;
22284;SDS011;11311;52.192;20.900;2023-07-31T11:07:49;2.20;;;1.20;;
22284;SDS011;11311;52.192;20.900;2023-07-31T11:10:19;2.03;;;1.30;;
22284;SDS011;11311;52.192;20.900;2023-07-31T11:12:48;2.10;;;1.40;;
22284;SDS011;11311;52.192;20.900;2023-07-31T11:15:17;7.15;;;1.80;;
22284;SDS011;11311;52.192;20.900;2023-07-31T11:17:45;2.55;;;1.50;;
22284;SDS011;11311;52.192;20.900;2023-07-31T11:20:14;2.83;;;1.55;;
22284;SDS011;11311;52.192;20.900;2023-07-31T11:22:42;2.97;;;1.55;;
22284;SDS011;11311;52.192;20.900;2023-07-31T11:25:11;2.80;;;1.38;;
22284;SDS011;11311;52.192;20.900;2023-07-31T11:27:41;2.95;;;1.60;;
22284;SDS011;11311;52.192;20.900;2023-07-31T11:30:11;2.83;;;1.42;;
22284;SDS011;11311;52.192;20.900;2023-07-31T11:32:39;1.95;;;1.15;;
22284;SDS011;11311;52.192;20.900;2023-07-31T11:35:11;2.90;;;1.65;;
22284;SDS011;11311;52.192;20.900;2023-07-31T11:37:40;3.50;;;1.45;;
22284;SDS011;11311;52.192;20.900;2023-07-31T11:40:10;4.40;;;1.50;;
22284;SDS011;11311;52.192;20.900;2023-07-31T11:42:38;5.77;;;1.50;;
22284;SDS011;11311;52.192;20.900;2023-07-31T11:45:09;2.80;;;1.48;;
22284;SDS011;11311;52.192;20.900;2023-07-31T11:47:38;3.63;;;1.40;;
22284;SDS011;11311;52.192;20.900;2023-07-31T11:50:10;5.05;;;1.80;;
22284;SDS011;11311;52.192;20.900;2023-07-31T11:52:40;3.13;;;1.58;;
22284;SDS011;11311;52.192;20.900;2023-07-31T11:55:10;3.75;;;1.92;;
22284;SDS011;11311;52.192;20.900;2023-07-31T11:57:40;3.43;;;2.17;;
22284;SDS011;11311;52.192;20.900;2023-07-31T12:00:11;5.10;;;2.13;;
22284;SDS011;11311;52.192;20.900;2023-07-31T12:02:41;6.32;;;1.88;;
22284;SDS011;11311;52.192;20.900;2023-07-31T12:05:13;3.35;;;2.15;;
22284;SDS011;11311;52.192;20.900;2023-07-31T12:07:47;7.38;;;1.90;;
22284;SDS011;11311;52.192;20.900;2023-07-31T12:10:26;2.03;;;1.70;;
22284;SDS011;11311;52.192;20.900;2023-07-31T12:12:55;4.85;;;2.13;;
22284;SDS011;11311;52.192;20.900;2023-07-31T12:15:31;3.25;;;2.03;;
22284;SDS011;11311;52.192;20.900;2023-07-31T12:18:01;3.47;;;1.70;;
22284;SDS011;11311;52.192;20.900;2023-07-31T12:20:32;4.05;;;1.42;;
22284;SDS011;11311;52.192;20.900;2023-07-31T12:23:01;2.17;;;1.77;;
22284;SDS011;11311;52.192;20.900;2023-07-31T12:25:32;5.97;;;1.90;;
22284;SDS011;11311;52.192;20.900;2023-07-31T12:28:04;3.97;;;2.17;;
22284;SDS011;11311;52.192;20.900;2023-07-31T12:33:04;4.25;;;1.70;;
22284;SDS011;11311;52.192;20.900;2023-07-31T12:35:37;3.47;;;2.13;;
22284;SDS011;11311;52.192;20.900;2023-07-31T12:38:05;5.55;;;2.08;;
22284;SDS011;11311;52.192;20.900;2023-07-31T12:40:35;5.00;;;1.60;;
22284;SDS011;11311;52.192;20.900;2023-07-31T12:43:04;3.78;;;1.85;;
22284;SDS011;11311;52.192;20.900;2023-07-31T12:45:33;4.93;;;2.53;;
22284;SDS011;11311;52.192;20.900;2023-07-31T12:48:04;3.00;;;2.00;;
22284;SDS011;11311;52.192;20.900;2023-07-31T12:50:33;4.88;;;1.88;;
22284;SDS011;11311;52.192;20.900;2023-07-31T12:53:04;7.60;;;1.52;;
22284;SDS011;11311;52.192;20.900;2023-07-31T12:55:33;5.35;;;1.63;;
22284;SDS011;11311;52.192;20.900;2023-07-31T12:58:03;5.13;;;1.48;;
22284;SDS011;11311;52.192;20.900;2023-07-31T13:00:32;2.95;;;2.00;;
22284;SDS011;11311;52.192;20.900;2023-07-31T13:03:01;3.22;;;1.70;;
22284;SDS011;11311;52.192;20.900;2023-07-31T13:05:32;4.22;;;1.77;;
22284;SDS011;11311;52.192;20.900;2023-07-31T13:08:01;2.83;;;1.60;;
22284;SDS011;11311;52.192;20.900;2023-07-31T13:10:29;5.78;;;1.30;;
22284;SDS011;11311;52.192;20.900;2023-07-31T13:12:58;3.75;;;1.80;;
22284;SDS011;11311;52.192;20.900;2023-07-31T13:15:27;4.07;;;1.73;;
22284;SDS011;11311;52.192;20.900;2023-07-31T13:17:55;3.30;;;2.03;;
22284;SDS011;11311;52.192;20.900;2023-07-31T13:20:24;3.95;;;1.40;;
22284;SDS011;11311;52.192;20.900;2023-07-31T13:22:54;4.10;;;1.98;;
22284;SDS011;11311;52.192;20.900;2023-07-31T13:27:51;2.42;;;1.50;;
22284;SDS011;11311;52.192;20.900;2023-07-31T13:30:20;4.70;;;2.00;;
22284;SDS011;11311;52.192;20.900;2023-07-31T13:32:48;3.10;;;1.73;;
22284;SDS011;11311;52.192;20.900;2023-07-31T13:35:17;3.95;;;1.67;;
22284;SDS011;11311;52.192;20.900;2023-07-31T13:37:45;3.65;;;1.23;;
22284;SDS011;11311;52.192;20.900;2023-07-31T13:40:15;4.07;;;1.55;;
22284;SDS011;11311;52.192;20.900;2023-07-31T13:42:44;3.22;;;1.58;;
22284;SDS011;11311;52.192;20.900;2023-07-31T13:45:14;6.78;;;2.13;;
22284;SDS011;11311;52.192;20.900;2023-07-31T13:47:43;4.75;;;2.05;;
22284;SDS011;11311;52.192;20.900;2023-07-31T13:50:11;5.20;;;1.60;;
22284;SDS011;11311;52.192;20.900;2023-07-31T13:52:40;3.25;;;1.70;;
22284;SDS011;11311;52.192;20.900;2023-07-31T13:55:08;5.30;;;1.85;;
22284;SDS011;11311;52.192;20.900;2023-07-31T13:57:39;3.78;;;1.38;;
22284;SDS011;11311;52.192;20.900;2023-07-31T14:00:08;3.45;;;1.60;;
22284;SDS011;11311;52.192;20.900;2023-07-31T14:02:37;5.97;;;2.03;;
22284;SDS011;11311;52.192;20.900;2023-07-31T14:05:06;3.08;;;1.70;;
22284;SDS011;11311;52.192;20.900;2023-07-31T14:07:36;3.90;;;1.85;;
22284;SDS011;11311;52.192;20.900;2023-07-31T14:10:05;3.15;;;1.98;;
22284;SDS011;11311;52.192;20.900;2023-07-31T14:12:34;3.38;;;1.80;;
22284;SDS011;11311;52.192;20.900;2023-07-31T14:15:11;4.43;;;2.00;;
22284;SDS011;11311;52.192;20.900;2023-07-31T14:17:40;4.03;;;1.67;;
22284;SDS011;11311;52.192;20.900;2023-07-31T14:20:09;6.40;;;1.80;;
22284;SDS011;11311;52.192;20.900;2023-07-31T14:22:38;6.75;;;2.13;;
22284;SDS011;11311;52.192;20.900;2023-07-31T14:25:08;3.38;;;1.70;;
22284;SDS011;11311;52.192;20.900;2023-07-31T14:27:37;5.82;;;2.45;;
22284;SDS011;11311;52.192;20.900;2023-07-31T14:30:07;4.93;;;1.58;;
22284;SDS011;11311;52.192;20.900;2023-07-31T14:32:37;6.13;;;2.45;;
22284;SDS011;11311;52.192;20.900;2023-07-31T14:37:37;5.20;;;2.65;;
22284;SDS011;11311;52.192;20.900;2023-07-31T14:40:06;5.43;;;1.85;;
22284;SDS011;11311;52.192;20.900;2023-07-31T14:42:35;3.30;;;1.42;;
22284;SDS011;11311;52.192;20.900;2023-07-31T14:45:04;3.08;;;1.80;;
22284;SDS011;11311;52.192;20.900;2023-07-31T14:47:33;5.33;;;1.97;;
22284;SDS011;11311;52.192;20.900;2023-07-31T14:50:05;3.93;;;1.83;;
22284;SDS011;11311;52.192;20.900;2023-07-31T14:52:33;6.50;;;2.28;;
22284;SDS011;11311;52.192;20.900;2023-07-31T14:55:02;5.68;;;1.80;;
22284;SDS011;11311;52.192;20.900;2023-07-31T14:57:32;3.92;;;2.10;;
22284;SDS011;11311;52.192;20.900;2023-07-31T15:00:01;6.35;;;2.00;;
22284;SDS011;11311;52.192;20.900;2023-07-31T15:02:34;4.28;;;2.10;;
22284;SDS011;11311;52.192;20.900;2023-07-31T15:05:05;3.53;;;2.58;;
22284;SDS011;11311;52.192;20.900;2023-07-31T15:07:34;3.53;;;1.90;;
22284;SDS011;11311;52.192;20.900;2023-07-31T15:10:03;5.53;;;1.98;;